Chantal — A8WQ3 — position and weather

sailwx.info

Track history (hours):
 
Tides and Currents Weather Stations Pressure Air Temp Water Temp Dewpoint Dewpoint Depression Visibility Wind Speed Wind Dir Waves Ship Positions

Chantal

Last reported at 2015-Sep-02 12:16 UTC. Time now 2015-Sep-03 08:53 UTC.
Position N 38°02' W 122°08'.

Length 228 m; draft 11.3 m.

Type: Tanker. MMSI: 636014805.

Date/timePositionNaut miles runAvg speedWind from/ knotsBaromVisibWave heightAir tempDewpointWater temp
2015-Sep-02 12:16N 38°02' W 122°08'1 0.7
2015-Sep-02 11:33N 38°02' W 122°08'7 7.5
2015-Sep-02 10:33N 38°03' W 122°18'9 8.8
2015-Sep-02 09:33N 37°58' W 122°27'8 8.1
2015-Sep-02 08:33N 37°50' W 122°28'1211.6
2015-Sep-02 07:33N 37°44' W 122°41'9 9.4
2015-Sep-02 06:33N 37°39' W 122°50'10 9.5
2015-Sep-02 05:33N 37°34' W 123°00'10 9.8
2015-Sep-02 04:33N 37°27' W 123°09'13 5.9
2015-Sep-02 02:21N 37°15' W 123°16'2 1.9
2015-Sep-02 01:33N 37°17' W 123°16'2 1.9
2015-Sep-02 00:16N 37°19' W 123°16'2 1.7
2015-Sep-01 23:10N 37°21' W 123°16'1 0.4
2015-Sep-01 21:33N 37°21' W 123°17'4 3.4
2015-Sep-01 20:25N 37°17' W 123°16'3 0.3
2015-Sep-01 10:27N 37°18' W 123°13'2 1.8
2015-Sep-01 09:25N 37°20' W 123°13'1 1.5
2015-Sep-01 08:33N 37°21' W 123°13'8 8.4
2015-Sep-01 07:33N 37°28' W 123°07'10 9.7
2015-Sep-01 06:33N 37°22' W 123°16'1312.8
2015-Sep-01 05:33N 37°12' W 123°27'39610.7
2015-Aug-30 16:28N 30°37' W 123°00'1213.3
2015-Aug-30 15:33N 30°26' W 122°54'1313.2
2015-Aug-30 14:33N 30°16' W 122°44'1813.5
2015-Aug-30 13:12N 30°05' W 122°27'913.5
2015-Aug-30 12:31N 29°60' W 122°19'5713.1
2015-Aug-30 08:13N 29°26' W 121°27'5113.2
2015-Aug-30 04:21N 28°55' W 120°40'1013.1
2015-Aug-30 03:33N 28°49' W 120°31'1313.0
2015-Aug-30 02:33N 28°41' W 120°19'1313.3
2015-Aug-30 01:33N 28°33' W 120°06'1313.2
2015-Aug-30 00:33N 28°25' W 119°55'1813.0
2015-Aug-29 23:12N 28°15' W 119°38'1312.9
2015-Aug-29 22:12N 28°07' W 119°27'913.2
2015-Aug-29 21:33N 28°02' W 119°19'21813.6
2015-Aug-29 05:31N 25°51' W 116°03'  
Track history (hours):
 
Tides and Currents Weather Stations Pressure Air Temp Water Temp Dewpoint Dewpoint Depression Visibility Wind Speed Wind Dir Waves Ship Positions

Chantal

Last reported at 2015-Sep-02 12:16 UTC. Time now 2015-Sep-03 08:53 UTC.
Position N 38°02' W 122°08'.

Length 228 m; draft 11.3 m.

Type: Tanker. MMSI: 636014805.

Date/timePositionNaut miles runAvg speedWind from/ knotsBaromVisibWave heightAir tempDewpointWater temp
2015-Sep-02 12:16N 38°02' W 122°08'1 0.7
2015-Sep-02 11:33N 38°02' W 122°08'7 7.5
2015-Sep-02 10:33N 38°03' W 122°18'9 8.8
2015-Sep-02 09:33N 37°58' W 122°27'8 8.1
2015-Sep-02 08:33N 37°50' W 122°28'1211.6
2015-Sep-02 07:33N 37°44' W 122°41'9 9.4
2015-Sep-02 06:33N 37°39' W 122°50'10 9.5
2015-Sep-02 05:33N 37°34' W 123°00'10 9.8
2015-Sep-02 04:33N 37°27' W 123°09'13 5.9
2015-Sep-02 02:21N 37°15' W 123°16'2 1.9
2015-Sep-02 01:33N 37°17' W 123°16'2 1.9
2015-Sep-02 00:16N 37°19' W 123°16'2 1.7
2015-Sep-01 23:10N 37°21' W 123°16'1 0.4
2015-Sep-01 21:33N 37°21' W 123°17'4 3.4
2015-Sep-01 20:25N 37°17' W 123°16'3 0.3
2015-Sep-01 10:27N 37°18' W 123°13'2 1.8
2015-Sep-01 09:25N 37°20' W 123°13'1 1.5
2015-Sep-01 08:33N 37°21' W 123°13'8 8.4
2015-Sep-01 07:33N 37°28' W 123°07'10 9.7
2015-Sep-01 06:33N 37°22' W 123°16'1312.8
2015-Sep-01 05:33N 37°12' W 123°27'39610.7
2015-Aug-30 16:28N 30°37' W 123°00'1213.3
2015-Aug-30 15:33N 30°26' W 122°54'1313.2
2015-Aug-30 14:33N 30°16' W 122°44'1813.5
2015-Aug-30 13:12N 30°05' W 122°27'913.5
2015-Aug-30 12:31N 29°60' W 122°19'5713.1
2015-Aug-30 08:13N 29°26' W 121°27'5113.2
2015-Aug-30 04:21N 28°55' W 120°40'1013.1
2015-Aug-30 03:33N 28°49' W 120°31'1313.0
2015-Aug-30 02:33N 28°41' W 120°19'1313.3
2015-Aug-30 01:33N 28°33' W 120°06'1313.2
2015-Aug-30 00:33N 28°25' W 119°55'1813.0
2015-Aug-29 23:12N 28°15' W 119°38'1312.9
2015-Aug-29 22:12N 28°07' W 119°27'913.2
2015-Aug-29 21:33N 28°02' W 119°19'21813.6
2015-Aug-29 05:31N 25°51' W 116°03'  

Dump ship's entire track history